Time;durP1;ratioP1;P1;durP2;ratioP2;P2;SDS_P1;SDS_P2;PMS_P1;PMS_P2;Temp;Humidity;BMP_temperature;BMP_pressure;BME280_temperature;BME280_humidity;BME280_pressure;Samples;Min_cycle;Max_cycle;Signal;HPM_P1;HPM_P2
2022/05/07 00:01:58;;;;;;;25.20;22.70;;;12.90;99.90;;;;;;5064393;28;20271;-47
2022/05/07 00:04:27;;;;;;;33.93;26.93;;;12.90;99.90;;;;;;5054120;28;20251;-47
2022/05/07 00:06:54;;;;;;;25.40;22.70;;;13.00;99.90;;;;;;5064553;28;20227;-47
2022/05/07 00:09:21;;;;;;;30.17;25.63;;;13.00;99.90;;;;;;5060612;28;20190;-47
2022/05/07 00:11:48;;;;;;;27.17;23.57;;;12.90;99.90;;;;;;5061856;28;20205;-47
2022/05/07 00:14:16;;;;;;;28.30;23.83;;;12.90;99.90;;;;;;5072896;28;20250;-47
2022/05/07 00:19:28;;;;;;;25.83;22.67;;;12.90;99.90;;;;;;5054916;28;20228;-45
2022/05/07 00:21:55;;;;;;;26.80;23.47;;;12.90;99.90;;;;;;5062893;28;20585;-47
2022/05/07 00:24:22;;;;;;;28.17;22.83;;;12.90;99.90;;;;;;5057329;28;20204;-47
2022/05/07 00:26:49;;;;;;;27.73;24.23;;;12.90;99.90;;;;;;5061955;28;20204;-47
2022/05/07 00:29:16;;;;;;;26.20;22.57;;;12.90;99.90;;;;;;5054699;28;20247;-47
2022/05/07 00:31:47;;;;;;;26.47;23.20;;;12.90;99.90;;;;;;5052912;28;20312;-47
2022/05/07 00:34:14;;;;;;;28.27;23.60;;;12.90;99.90;;;;;;5057879;28;20563;-48
2022/05/07 00:36:46;;;;;;;30.73;24.83;;;12.90;99.90;;;;;;5060809;28;20255;-47
2022/05/07 00:39:13;;;;;;;25.77;21.90;;;12.80;99.90;;;;;;5050893;28;20628;-47
2022/05/07 00:41:40;;;;;;;30.40;23.20;;;12.80;99.90;;;;;;5058968;28;20226;-47
2022/05/07 00:44:08;;;;;;;25.93;23.33;;;12.80;99.90;;;;;;5055360;28;20284;-48
2022/05/07 00:46:35;;;;;;;27.43;23.23;;;12.90;99.90;;;;;;5062982;28;20209;-47
2022/05/07 00:49:02;;;;;;;28.50;23.00;;;12.90;99.90;;;;;;5056499;28;20480;-48
2022/05/07 00:51:34;;;;;;;27.90;23.20;;;12.90;99.90;;;;;;5054681;28;20225;-47
2022/05/07 00:54:05;;;;;;;26.93;22.77;;;12.90;99.90;;;;;;5064656;28;20280;-47
2022/05/07 00:56:33;;;;;;;27.13;23.03;;;12.90;99.90;;;;;;5058678;28;20228;-47
2022/05/07 00:59:00;;;;;;;26.70;23.93;;;12.90;99.90;;;;;;5059796;28;20638;-48
2022/05/07 01:01:27;;;;;;;26.33;22.33;;;12.80;99.90;;;;;;5067280;28;20213;-47
2022/05/07 01:03:55;;;;;;;25.10;22.23;;;12.90;99.90;;;;;;5057682;28;20304;-47
2022/05/07 01:06:23;;;;;;;26.67;23.83;;;12.90;99.90;;;;;;5066194;28;20199;-47
2022/05/07 01:08:51;;;;;;;27.60;23.33;;;12.80;99.90;;;;;;5062517;28;20263;-47
2022/05/07 01:11:21;;;;;;;25.33;21.63;;;12.80;99.90;;;;;;5061719;28;20219;-48
2022/05/07 01:13:49;;;;;;;27.53;23.50;;;12.70;99.90;;;;;;5063786;28;20259;-47
2022/05/07 01:16:16;;;;;;;26.47;22.50;;;12.70;99.90;;;;;;5054500;28;20263;-47
2022/05/07 01:18:43;;;;;;;25.53;22.80;;;12.70;99.90;;;;;;5059191;28;20633;-47
2022/05/07 01:21:14;;;;;;;29.13;24.30;;;12.60;99.90;;;;;;5055293;28;20948;-47
2022/05/07 01:23:43;;;;;;;26.17;23.23;;;12.60;99.90;;;;;;5056108;28;20202;-47
2022/05/07 01:26:11;;;;;;;26.37;22.93;;;12.60;99.90;;;;;;5049649;28;20548;-47
2022/05/07 01:28:38;;;;;;;26.07;23.13;;;12.60;99.90;;;;;;5056382;28;20206;-47
2022/05/07 01:31:06;;;;;;;29.57;24.77;;;12.60;99.90;;;;;;5059677;28;20217;-47
2022/05/07 01:33:34;;;;;;;23.63;21.27;;;12.60;99.90;;;;;;5058768;28;20198;-47
2022/05/07 01:36:02;;;;;;;28.33;25.20;;;12.50;99.90;;;;;;5066311;28;20262;-47
2022/05/07 01:38:31;;;;;;;28.30;23.40;;;12.60;99.90;;;;;;5059199;28;20261;-48
2022/05/07 01:41:00;;;;;;;25.33;22.07;;;12.60;99.90;;;;;;5060912;28;20235;-47
2022/05/07 01:43:28;;;;;;;31.17;24.50;;;12.60;99.90;;;;;;5068661;28;20208;-48
2022/05/07 01:45:56;;;;;;;28.23;23.30;;;12.70;99.90;;;;;;5063389;28;20236;-47
2022/05/07 01:48:22;;;;;;;27.53;24.47;;;12.80;99.90;;;;;;5054179;28;20194;-47
2022/05/07 01:50:49;;;;;;;28.47;23.20;;;12.70;99.90;;;;;;5063652;28;20594;-47
2022/05/07 01:53:16;;;;;;;26.00;21.33;;;12.60;99.90;;;;;;5061626;28;20722;-47
2022/05/07 01:55:45;;;;;;;27.40;24.50;;;12.60;99.90;;;;;;5059205;28;20259;-47
2022/05/07 01:58:12;;;;;;;27.10;23.80;;;12.60;99.90;;;;;;5062237;28;20728;-47
2022/05/07 02:00:41;;;;;;;28.03;24.97;;;12.60;99.90;;;;;;5061904;28;20706;-48
2022/05/07 02:03:09;;;;;;;27.70;24.40;;;12.70;99.90;;;;;;5065931;28;20643;-48
2022/05/07 02:05:36;;;;;;;24.97;21.60;;;12.70;99.90;;;;;;5056152;28;20205;-47
2022/05/07 02:08:04;;;;;;;27.70;23.13;;;12.70;99.90;;;;;;5058618;28;20201;-48
2022/05/07 02:10:31;;;;;;;26.67;23.20;;;12.70;99.90;;;;;;5065332;28;20640;-47
2022/05/07 02:13:01;;;;;;;24.67;22.07;;;12.70;99.90;;;;;;5054956;28;20205;-48
2022/05/07 02:15:29;;;;;;;27.10;22.63;;;12.70;99.90;;;;;;5063196;28;20285;-48
2022/05/07 02:17:57;;;;;;;26.23;23.13;;;12.60;99.90;;;;;;5054674;28;20698;-48
2022/05/07 02:20:24;;;;;;;26.23;22.90;;;12.60;99.90;;;;;;5060960;28;20225;-47
2022/05/07 02:22:55;;;;;;;26.07;20.60;;;12.60;99.90;;;;;;5085147;22;20235;-52
2022/05/07 02:25:23;;;;;;;25.47;22.83;;;12.70;99.90;;;;;;5086038;28;20215;-50
2022/05/07 02:27:50;;;;;;;26.53;23.27;;;12.70;99.90;;;;;;5086300;28;20302;-51
2022/05/07 02:30:19;;;;;;;28.47;23.90;;;12.60;99.90;;;;;;5081037;28;20199;-50
2022/05/07 02:32:47;;;;;;;27.17;23.10;;;12.70;99.90;;;;;;5080945;28;20220;-50
2022/05/07 02:35:15;;;;;;;28.07;23.53;;;12.80;99.90;;;;;;5082012;28;20311;-51
2022/05/07 02:37:42;;;;;;;24.90;20.30;;;12.70;99.90;;;;;;5074467;28;20677;-50
2022/05/07 02:40:10;;;;;;;30.33;23.20;;;12.60;99.90;;;;;;5068920;28;20281;-50
2022/05/07 02:42:36;;;;;;;27.70;23.17;;;12.70;99.90;;;;;;5082169;28;20680;-50
2022/05/07 02:45:06;;;;;;;31.50;25.13;;;12.80;99.90;;;;;;5083995;28;20192;-50
2022/05/07 02:47:35;;;;;;;29.73;24.20;;;12.80;99.90;;;;;;5071821;28;20207;-51
2022/05/07 02:50:02;;;;;;;27.53;23.60;;;12.70;99.90;;;;;;5079628;28;20197;-50
2022/05/07 02:52:32;;;;;;;25.87;23.17;;;12.60;99.90;;;;;;5078380;28;20259;-50
2022/05/07 02:55:00;;;;;;;31.13;23.83;;;12.60;99.90;;;;;;5086555;28;20203;-51
2022/05/07 02:57:27;;;;;;;27.77;22.40;;;12.50;99.90;;;;;;5078909;28;20879;-50
2022/05/07 02:59:54;;;;;;;28.83;24.10;;;12.50;99.90;;;;;;5084346;28;20297;-51
2022/05/07 03:02:21;;;;;;;26.00;23.17;;;12.50;99.90;;;;;;5079543;28;20298;-51
2022/05/07 03:04:50;;;;;;;28.43;25.23;;;12.40;99.90;;;;;;5076608;28;20197;-50
2022/05/07 03:07:18;;;;;;;29.07;24.77;;;12.50;99.90;;;;;;5079767;28;20203;-50
2022/05/07 03:09:45;;;;;;;27.73;24.73;;;12.50;99.90;;;;;;5079343;28;20277;-50
2022/05/07 03:12:12;;;;;;;27.60;24.60;;;12.50;99.90;;;;;;5082226;28;20659;-51
2022/05/07 03:14:39;;;;;;;32.20;27.30;;;12.50;99.90;;;;;;5083275;28;20218;-51
2022/05/07 03:17:06;;;;;;;31.20;25.40;;;12.50;99.90;;;;;;5073375;28;20199;-51
2022/05/07 03:19:33;;;;;;;32.77;27.90;;;12.50;99.90;;;;;;5080372;28;20216;-51
2022/05/07 03:22:01;;;;;;;34.97;27.77;;;12.50;99.90;;;;;;5082045;28;20200;-51
2022/05/07 03:24:28;;;;;;;32.70;27.30;;;12.40;99.90;;;;;;5084284;28;20212;-50
2022/05/07 03:26:55;;;;;;;32.80;25.73;;;12.60;99.90;;;;;;5077099;28;20205;-51
2022/05/07 03:29:22;;;;;;;28.33;24.80;;;12.60;99.90;;;;;;5074023;28;20198;-51
2022/05/07 03:31:49;;;;;;;32.27;26.70;;;12.60;99.90;;;;;;5080372;28;20196;-51
2022/05/07 03:34:17;;;;;;;31.50;28.10;;;12.60;99.90;;;;;;5079434;28;20213;-51
2022/05/07 03:36:45;;;;;;;35.33;27.33;;;12.60;99.90;;;;;;5078321;28;20216;-51
2022/05/07 03:39:13;;;;;;;35.80;25.23;;;12.70;99.90;;;;;;5076971;28;20261;-50
2022/05/07 03:41:41;;;;;;;30.77;25.00;;;12.70;99.90;;;;;;5079295;28;20212;-50
2022/05/07 03:44:08;;;;;;;32.83;26.23;;;12.60;99.90;;;;;;5077291;28;20223;-50
2022/05/07 03:46:35;;;;;;;29.93;24.93;;;12.60;99.90;;;;;;5066405;28;20199;-49
2022/05/07 03:49:02;;;;;;;30.57;25.80;;;12.60;99.90;;;;;;5063577;28;20199;-49
2022/05/07 03:51:28;;;;;;;33.33;26.37;;;12.50;99.90;;;;;;5060699;28;20543;-50
2022/05/07 03:53:54;;;;;;;36.27;27.67;;;12.50;99.90;;;;;;5079262;28;20273;-50
2022/05/07 03:56:23;;;;;;;30.60;25.93;;;12.40;99.90;;;;;;5073034;28;20196;-49
2022/05/07 03:58:50;;;;;;;34.50;27.03;;;12.50;99.90;;;;;;5075610;28;20201;-50
2022/05/07 04:01:17;;;;;;;40.10;29.37;;;12.40;99.90;;;;;;5064368;28;20278;-49
2022/05/07 04:03:44;;;;;;;33.70;27.70;;;12.30;99.90;;;;;;5068220;28;20227;-49
2022/05/07 04:06:11;;;;;;;38.23;27.23;;;12.40;99.90;;;;;;5067692;28;20205;-50
2022/05/07 04:08:38;;;;;;;35.00;27.63;;;12.40;99.90;;;;;;5066280;28;20687;-50
2022/05/07 04:11:05;;;;;;;33.53;27.17;;;12.50;99.90;;;;;;5068464;28;20212;-50
2022/05/07 04:13:33;;;;;;;40.17;28.30;;;12.50;99.90;;;;;;5071400;28;20382;-50
2022/05/07 04:16:00;;;;;;;36.57;28.00;;;12.50;99.90;;;;;;5062975;28;20253;-49
2022/05/07 04:18:27;;;;;;;37.47;29.03;;;12.50;99.90;;;;;;5070492;28;20251;-49
2022/05/07 04:20:54;;;;;;;37.47;28.40;;;12.50;99.90;;;;;;5065392;28;20222;-49
2022/05/07 04:23:21;;;;;;;33.03;27.00;;;12.40;99.90;;;;;;5068286;28;20228;-49
2022/05/07 04:25:49;;;;;;;32.67;27.03;;;12.50;99.90;;;;;;5069497;28;20280;-51
2022/05/07 04:28:16;;;;;;;33.57;26.60;;;12.50;99.90;;;;;;5069344;28;20282;-51
2022/05/07 04:30:44;;;;;;;33.77;27.63;;;12.60;99.90;;;;;;5068662;28;20563;-49
2022/05/07 04:33:11;;;;;;;34.77;27.63;;;12.50;99.90;;;;;;5067848;28;20216;-51
2022/05/07 04:35:38;;;;;;;32.80;26.63;;;12.50;99.90;;;;;;5068503;28;20221;-49
2022/05/07 04:38:06;;;;;;;32.80;26.80;;;12.50;99.90;;;;;;5068974;28;20200;-50
2022/05/07 04:40:32;;;;;;;32.63;26.03;;;12.60;99.90;;;;;;5049582;28;20224;-49
2022/05/07 04:43:00;;;;;;;33.40;26.63;;;12.60;99.90;;;;;;5067952;28;20253;-49
2022/05/07 04:45:28;;;;;;;31.40;26.87;;;12.60;99.90;;;;;;5069336;28;20670;-49
2022/05/07 04:47:57;;;;;;;28.23;24.53;;;12.60;99.90;;;;;;5069267;28;20607;-50
2022/05/07 04:50:23;;;;;;;30.67;24.77;;;12.70;99.90;;;;;;5065253;28;20686;-50
2022/05/07 04:52:50;;;;;;;31.20;24.43;;;12.70;99.90;;;;;;5067526;28;20286;-50
2022/05/07 04:55:18;;;;;;;27.10;22.33;;;12.80;99.90;;;;;;5069383;28;20262;-50
2022/05/07 04:57:45;;;;;;;28.70;24.77;;;12.70;99.90;;;;;;5069295;28;20196;-50
2022/05/07 05:00:14;;;;;;;28.53;23.53;;;12.80;99.90;;;;;;5069335;28;20880;-50
2022/05/07 05:02:41;;;;;;;27.30;22.27;;;12.90;99.90;;;;;;5068485;28;20319;-50
2022/05/07 05:05:10;;;;;;;26.20;21.87;;;12.90;99.90;;;;;;5069775;28;20247;-50
2022/05/07 05:07:37;;;;;;;23.97;21.37;;;12.90;99.90;;;;;;5066296;28;20253;-50
2022/05/07 05:10:05;;;;;;;27.67;22.47;;;12.90;99.90;;;;;;5068397;28;20197;-50
2022/05/07 05:12:33;;;;;;;26.97;23.00;;;12.90;99.90;;;;;;5071101;28;20713;-50
2022/05/07 05:15:03;;;;;;;30.95;27.85;;;13.00;99.90;;;;;;5060464;28;20439;-50
2022/05/07 05:17:31;;;;;;;27.23;23.93;;;13.10;99.90;;;;;;5066008;28;20285;-49
2022/05/07 05:19:59;;;;;;;26.77;23.90;;;13.20;99.90;;;;;;5072696;28;20213;-52
2022/05/07 05:22:27;;;;;;;25.43;22.33;;;13.20;99.90;;;;;;5069983;28;20233;-50
2022/05/07 05:24:54;;;;;;;24.37;21.73;;;13.10;99.90;;;;;;5070971;28;20717;-49
2022/05/07 05:27:21;;;;;;;28.97;25.47;;;13.20;99.90;;;;;;5072053;28;20197;-52
2022/05/07 05:29:49;;;;;;;26.50;23.33;;;13.20;99.90;;;;;;5074133;28;20678;-49
2022/05/07 05:32:18;;;;;;;27.40;22.17;;;13.30;99.90;;;;;;5073980;28;20601;-50
2022/05/07 05:34:47;;;;;;;24.33;21.70;;;13.30;99.90;;;;;;5073986;28;20251;-50
2022/05/07 05:37:15;;;;;;;31.30;24.27;;;13.30;99.90;;;;;;5072566;28;20209;-50
2022/05/07 05:39:44;;;;;;;27.17;23.13;;;13.30;99.90;;;;;;5073693;28;20208;-50
2022/05/07 05:42:11;;;;;;;30.83;27.30;;;13.40;99.90;;;;;;5073600;28;20246;-49
2022/05/07 05:44:39;;;;;;;27.17;24.23;;;13.40;99.90;;;;;;5073783;28;20215;-50
2022/05/07 05:47:07;;;;;;;27.27;22.37;;;13.50;99.90;;;;;;5073599;28;20203;-50
2022/05/07 05:49:34;;;;;;;25.53;21.20;;;13.50;99.90;;;;;;5068933;28;20217;-49
2022/05/07 05:52:02;;;;;;;24.10;21.57;;;13.50;99.90;;;;;;5073263;28;20265;-50
2022/05/07 05:54:30;;;;;;;24.93;22.33;;;13.50;99.90;;;;;;5071583;28;20209;-51
2022/05/07 05:56:59;;;;;;;25.03;22.10;;;13.40;99.90;;;;;;5069918;28;20742;-51
2022/05/07 05:59:26;;;;;;;25.23;21.60;;;13.40;99.90;;;;;;5071387;28;20207;-51
2022/05/07 06:01:53;;;;;;;24.03;21.43;;;13.40;99.90;;;;;;5073138;28;20221;-51
2022/05/07 06:04:20;;;;;;;25.60;22.10;;;13.40;99.90;;;;;;5071636;28;20200;-51
2022/05/07 06:06:47;;;;;;;25.07;21.90;;;13.40;99.90;;;;;;5071477;28;20197;-49
2022/05/07 06:09:14;;;;;;;24.77;22.03;;;13.50;99.90;;;;;;5065467;28;20204;-50
2022/05/07 06:11:45;;;;;;;24.87;22.13;;;13.60;99.90;;;;;;5073012;28;20198;-49
2022/05/07 06:14:14;;;;;;;24.73;21.63;;;13.60;99.90;;;;;;5068828;28;20225;-49
2022/05/07 06:16:41;;;;;;;26.00;22.80;;;13.60;99.90;;;;;;5072802;28;20196;-50
2022/05/07 06:19:08;;;;;;;23.80;21.13;;;13.50;99.90;;;;;;5071542;28;20197;-57
2022/05/07 06:21:35;;;;;;;26.10;22.57;;;13.50;99.90;;;;;;5072564;28;20221;-50
2022/05/07 06:29:28;;;;;;;26.57;22.80;;;13.60;99.90;;;;;;5073012;28;20282;-51
2022/05/07 06:31:55;;;;;;;31.33;25.33;;;13.50;99.90;;;;;;5072718;28;20203;-50
2022/05/07 06:34:24;;;;;;;26.57;22.80;;;13.50;99.90;;;;;;5071236;28;20717;-50
2022/05/07 06:36:51;;;;;;;33.40;25.50;;;13.60;99.90;;;;;;5067650;28;20205;-50
2022/05/07 06:39:20;;;;;;;29.23;22.63;;;13.70;99.90;;;;;;5072662;28;20201;-50
2022/05/07 06:41:48;;;;;;;30.63;23.67;;;13.90;99.90;;;;;;5072576;28;20224;-50
2022/05/07 06:44:15;;;;;;;31.30;24.17;;;14.10;99.90;;;;;;5070671;28;20227;-50
2022/05/07 06:46:47;;;;;;;27.87;23.03;;;14.30;99.90;;;;;;5072883;28;20267;-50
2022/05/07 06:49:17;;;;;;;27.00;23.83;;;14.30;99.90;;;;;;5072750;28;20204;-50
2022/05/07 06:51:47;;;;;;;23.97;21.37;;;14.50;99.90;;;;;;5072445;28;20719;-51
2022/05/07 06:54:14;;;;;;;26.70;23.93;;;14.60;99.90;;;;;;5072167;28;20233;-50
2022/05/07 06:56:42;;;;;;;24.57;21.97;;;14.80;99.90;;;;;;5071911;28;20642;-50
2022/05/07 06:59:10;;;;;;;28.47;24.23;;;15.00;99.90;;;;;;5072367;28;20694;-50
2022/05/07 07:01:37;;;;;;;29.07;23.93;;;15.10;99.90;;;;;;5071976;28;20319;-51
2022/05/07 07:04:05;;;;;;;29.40;24.17;;;15.30;99.90;;;;;;5071693;28;20317;-51
2022/05/07 07:06:32;;;;;;;25.00;22.47;;;15.30;99.90;;;;;;5072632;28;20204;-51
2022/05/07 07:09:00;;;;;;;27.87;23.77;;;15.40;99.90;;;;;;5072488;28;20209;-51
2022/05/07 07:11:27;;;;;;;29.63;24.97;;;15.50;99.90;;;;;;5070239;28;20204;-50
2022/05/07 07:13:54;;;;;;;25.40;21.57;;;15.50;99.90;;;;;;5071573;28;20274;-51
2022/05/07 07:16:20;;;;;;;24.90;22.37;;;15.60;99.90;;;;;;5072250;28;20201;-50
2022/05/07 07:18:47;;;;;;;27.53;24.60;;;15.70;99.90;;;;;;5067382;28;20209;-51
2022/05/07 07:21:16;;;;;;;25.77;23.17;;;15.80;99.90;;;;;;5071041;28;20246;-50
2022/05/07 07:23:43;;;;;;;24.77;22.37;;;15.80;99.90;;;;;;5070478;28;20232;-50
2022/05/07 07:26:10;;;;;;;25.93;22.67;;;15.60;99.90;;;;;;5063617;28;20256;-50
2022/05/07 07:28:37;;;;;;;28.73;24.43;;;15.60;99.90;;;;;;5070606;28;20254;-51
2022/05/07 07:31:05;;;;;;;28.00;25.03;;;15.70;99.90;;;;;;5071266;28;20193;-50
2022/05/07 07:33:32;;;;;;;27.77;23.93;;;15.70;99.90;;;;;;5069723;28;20216;-50
2022/05/07 07:35:59;;;;;;;26.37;23.57;;;15.70;99.90;;;;;;5070899;28;20225;-50
2022/05/07 07:38:29;;;;;;;27.87;24.00;;;15.60;99.90;;;;;;5071052;28;20242;-50
2022/05/07 07:40:56;;;;;;;29.43;23.90;;;15.50;99.90;;;;;;5070980;28;20260;-50
2022/05/07 07:43:23;;;;;;;25.10;22.43;;;15.50;99.90;;;;;;5070011;28;20262;-51
2022/05/07 07:48:34;;;;;;;26.43;23.33;;;15.70;99.90;;;;;;5071580;28;20632;-51
2022/05/07 07:51:02;;;;;;;24.93;21.70;;;16.00;99.90;;;;;;5071174;28;20197;-51
2022/05/07 07:53:30;;;;;;;24.23;21.87;;;16.20;99.90;;;;;;5070312;28;20221;-50
2022/05/07 07:55:57;;;;;;;24.13;21.73;;;16.20;99.90;;;;;;5071201;28;20251;-51
2022/05/07 07:58:24;;;;;;;24.30;21.73;;;16.10;99.90;;;;;;5070631;28;20213;-51
2022/05/07 08:00:51;;;;;;;24.57;22.10;;;16.50;99.90;;;;;;5070345;28;20225;-51
2022/05/07 08:03:19;;;;;;;22.77;20.53;;;17.30;99.90;;;;;;5069496;28;20304;-51
2022/05/07 08:05:48;;;;;;;24.77;22.13;;;17.60;99.90;;;;;;5070728;28;20574;-51
2022/05/07 08:13:47;;;;;;;24.73;22.33;;;18.30;99.90;;;;;;5069985;28;20232;-51
2022/05/07 08:16:17;;;;;;;23.77;21.50;;;18.10;99.90;;;;;;5069913;28;20201;-51
2022/05/07 08:18:44;;;;;;;23.47;21.00;;;18.10;99.90;;;;;;5070728;28;20237;-51
2022/05/07 08:21:12;;;;;;;24.73;22.33;;;17.60;99.90;;;;;;5069572;28;20209;-50
2022/05/07 08:23:40;;;;;;;23.90;21.47;;;16.80;99.90;;;;;;5070031;22;20763;-47
2022/05/07 08:26:10;;;;;;;25.47;22.73;;;16.50;99.90;;;;;;5009046;28;20241;-47
2022/05/07 08:28:38;;;;;;;26.20;23.50;;;16.40;99.90;;;;;;5011191;28;20203;-47
2022/05/07 08:31:06;;;;;;;26.17;23.67;;;16.30;99.90;;;;;;5004564;28;20250;-47
2022/05/07 08:33:33;;;;;;;23.67;21.13;;;16.30;99.90;;;;;;5004046;28;20235;-48
2022/05/07 08:36:00;;;;;;;24.80;22.30;;;16.30;99.90;;;;;;4990996;28;20670;-47
2022/05/07 08:38:27;;;;;;;25.73;23.03;;;16.20;99.90;;;;;;4992206;28;20204;-47
2022/05/07 08:40:54;;;;;;;25.43;22.93;;;16.20;99.90;;;;;;4992172;28;20203;-48
2022/05/07 08:43:23;;;;;;;26.70;23.47;;;16.40;99.90;;;;;;4991372;28;20274;-47
2022/05/07 08:45:49;;;;;;;26.47;23.67;;;16.30;99.90;;;;;;4991749;28;20203;-47
2022/05/07 08:48:16;;;;;;;23.87;21.33;;;16.20;99.90;;;;;;4991928;28;20645;-47
2022/05/07 08:50:44;;;;;;;24.53;21.97;;;16.30;99.90;;;;;;4992676;28;20244;-47
2022/05/07 08:53:12;;;;;;;25.27;20.97;;;16.40;99.90;;;;;;4991404;28;20220;-48
2022/05/07 08:55:39;;;;;;;24.53;22.07;;;16.50;99.90;;;;;;4991965;28;20204;-48
2022/05/07 08:58:06;;;;;;;25.90;23.20;;;16.60;99.90;;;;;;4992016;28;20226;-47
2022/05/07 09:00:34;;;;;;;26.30;23.60;;;16.20;99.90;;;;;;4992604;28;20211;-46
2022/05/07 09:03:03;;;;;;;25.37;21.83;;;15.90;99.90;;;;;;4995663;28;20273;-47
2022/05/07 09:05:35;;;;;;;26.60;23.80;;;15.90;99.90;;;;;;4988902;28;20200;-47
2022/05/07 09:08:04;;;;;;;27.60;24.73;;;15.70;99.90;;;;;;4991677;28;20219;-47
2022/05/07 09:10:32;;;;;;;23.70;21.33;;;15.60;99.90;;;;;;4992043;28;20251;-47
2022/05/07 09:13:11;;;;;;;29.60;25.60;;;15.60;99.90;;;;;;4993023;28;20282;-47
2022/05/07 09:15:49;;;;;;;30.47;25.50;;;15.60;99.90;;;;;;4997731;28;20207;-47
2022/05/07 09:18:19;;;;;;;29.97;26.33;;;15.40;99.90;;;;;;4992013;28;20243;-47
2022/05/07 09:20:57;;;;;;;28.67;25.57;;;15.10;99.90;;;;;;4991961;28;20200;-47
2022/05/07 09:23:24;;;;;;;31.23;26.73;;;15.30;99.90;;;;;;5000493;28;20318;-47
2022/05/07 09:25:51;;;;;;;29.33;25.67;;;15.40;99.90;;;;;;5009405;28;20677;-47
2022/05/07 09:28:27;;;;;;;32.87;27.97;;;15.60;99.90;;;;;;5011276;28;20257;-47
2022/05/07 09:30:57;;;;;;;34.53;28.53;;;15.60;99.90;;;;;;5011186;28;20237;-47
2022/05/07 09:33:33;;;;;;;29.73;25.77;;;15.80;99.90;;;;;;5011016;28;20222;-48
2022/05/07 09:36:10;;;;;;;28.60;25.43;;;16.00;99.90;;;;;;5011142;28;20290;-48
2022/05/07 09:38:38;;;;;;;31.70;26.70;;;16.10;99.90;;;;;;5011447;28;20201;-47
2022/05/07 09:41:05;;;;;;;31.37;27.33;;;16.10;99.90;;;;;;5011579;28;20211;-47
2022/05/07 09:43:34;;;;;;;29.97;25.33;;;16.10;99.90;;;;;;5010760;28;20281;-47
2022/05/07 09:46:02;;;;;;;29.17;26.07;;;16.30;99.90;;;;;;5011069;28;20203;-47
2022/05/07 09:48:30;;;;;;;40.90;33.97;;;16.50;99.90;;;;;;5011164;28;20605;-47
2022/05/07 09:50:58;;;;;;;32.63;29.07;;;16.60;99.90;;;;;;5010965;28;20677;-47
2022/05/07 09:58:54;;;;;;;31.03;27.80;;;17.10;99.90;;;;;;5010705;28;20218;-47
2022/05/07 10:01:34;;;;;;;32.03;28.63;;;17.20;99.90;;;;;;5013055;28;20246;-47
2022/05/07 10:04:18;;;;;;;30.83;27.37;;;17.20;99.90;;;;;;5012959;28;20309;-47
2022/05/07 10:07:09;;;;;;;31.70;28.33;;;17.30;99.90;;;;;;5012749;28;20198;-47
2022/05/07 10:09:43;;;;;;;33.33;29.23;;;17.20;99.90;;;;;;5013655;28;20567;-47
2022/05/07 10:12:17;;;;;;;30.43;27.17;;;17.00;99.90;;;;;;5013800;28;20196;-47
2022/05/07 10:14:44;;;;;;;29.10;26.07;;;16.80;99.90;;;;;;5009503;28;20222;-46
2022/05/07 10:17:14;;;;;;;31.07;27.77;;;16.80;99.90;;;;;;5013139;28;20701;-47
2022/05/07 10:19:42;;;;;;;30.27;27.10;;;16.80;99.90;;;;;;5014204;28;22006;-47
2022/05/07 10:22:17;;;;;;;34.90;30.50;;;16.80;99.90;;;;;;5013691;28;20234;-47
2022/05/07 10:24:46;;;;;;;40.30;31.93;;;16.30;99.90;;;;;;5012613;28;20327;-47
2022/05/07 10:27:22;;;;;;;36.33;31.93;;;16.10;99.90;;;;;;5013120;28;20289;-47
2022/05/07 10:29:50;;;;;;;41.83;31.77;;;16.10;99.90;;;;;;5009288;28;20209;-47
2022/05/07 10:32:21;;;;;;;35.83;31.83;;;16.00;99.90;;;;;;5013943;28;20199;-47
2022/05/07 10:34:53;;;;;;;34.10;30.37;;;16.10;99.90;;;;;;5014137;28;20289;-47
2022/05/07 10:37:20;;;;;;;39.60;32.57;;;16.10;99.90;;;;;;5013091;28;20665;-46
2022/05/07 10:39:52;;;;;;;37.27;31.70;;;16.30;99.90;;;;;;5011348;28;20290;-47
2022/05/07 10:42:21;;;;;;;37.83;31.70;;;16.40;99.90;;;;;;5007734;28;20219;-46
2022/05/07 10:44:49;;;;;;;37.77;30.37;;;16.30;99.90;;;;;;5012219;28;20250;-47
2022/05/07 10:47:20;;;;;;;38.27;30.90;;;16.30;99.90;;;;;;5012477;28;20203;-47
2022/05/07 10:49:54;;;;;;;34.90;30.23;;;16.30;99.90;;;;;;5012779;28;20203;-47
2022/05/07 10:52:30;;;;;;;33.27;29.67;;;16.30;99.90;;;;;;5011496;28;20812;-47
2022/05/07 10:55:16;;;;;;;38.17;31.43;;;16.40;99.90;;;;;;5012234;28;20214;-47
2022/05/07 10:57:45;;;;;;;40.73;33.03;;;16.70;99.90;;;;;;5012408;28;20249;-47
2022/05/07 11:00:15;;;;;;;35.87;32.00;;;17.10;99.90;;;;;;5013070;28;20199;-47
2022/05/07 11:02:45;;;;;;;33.00;29.60;;;17.50;99.90;;;;;;5012380;28;20786;-47
2022/05/07 11:05:12;;;;;;;33.60;29.97;;;18.10;99.90;;;;;;5012065;28;20661;-47
2022/05/07 11:07:40;;;;;;;41.13;34.50;;;18.70;99.90;;;;;;5012764;28;20309;-47
2022/05/07 11:10:08;;;;;;;34.13;29.27;;;19.20;99.90;;;;;;5014208;28;20198;-47
2022/05/07 11:12:36;;;;;;;28.53;25.40;;;19.10;99.90;;;;;;5008302;28;20214;-47
2022/05/07 11:15:04;;;;;;;29.23;26.23;;;19.00;99.90;;;;;;5012506;28;20268;-48
2022/05/07 11:17:34;;;;;;;30.67;27.37;;;19.30;99.90;;;;;;5014807;28;20195;-47
2022/05/07 11:20:04;;;;;;;29.40;26.40;;;19.50;99.90;;;;;;5011979;28;20262;-48
2022/05/07 11:22:31;;;;;;;30.57;27.37;;;19.40;99.90;;;;;;5010752;28;20268;-48
2022/05/07 11:25:01;;;;;;;30.47;27.37;;;19.50;99.90;;;;;;5012230;28;20319;-47
2022/05/07 11:27:32;;;;;;;28.77;25.80;;;19.40;99.90;;;;;;5013136;28;20253;-47
2022/05/07 11:30:00;;;;;;;33.67;28.30;;;19.20;99.90;;;;;;5009596;28;20250;-47
2022/05/07 11:32:38;;;;;;;32.53;29.23;;;18.90;99.90;;;;;;5008487;28;20199;-47
2022/05/07 11:35:08;;;;;;;31.10;27.80;;;18.80;99.90;;;;;;5012522;28;20290;-48
2022/05/07 11:37:40;;;;;;;31.90;28.43;;;19.00;99.90;;;;;;5012962;28;20207;-47
2022/05/07 11:40:09;;;;;;;32.93;29.07;;;19.00;99.90;;;;;;5018244;28;20253;-47
2022/05/07 11:42:37;;;;;;;30.13;27.10;;;18.90;99.90;;;;;;5025434;28;20219;-47
2022/05/07 11:45:29;;;;;;;29.63;26.80;;;18.80;99.90;;;;;;5012314;28;20308;-47
2022/05/07 11:47:58;;;;;;;31.60;28.33;;;18.50;99.90;;;;;;5018642;28;20194;-47
2022/05/07 11:50:29;;;;;;;30.53;27.60;;;18.40;99.90;;;;;;5015849;28;20202;-47
2022/05/07 11:52:57;;;;;;;30.33;27.13;;;18.30;99.90;;;;;;5013099;28;20203;-47
2022/05/07 11:55:26;;;;;;;32.43;29.23;;;17.80;99.90;;;;;;5011448;28;20195;-47
2022/05/07 11:57:54;;;;;;;31.43;28.00;;;17.60;99.90;;;;;;5013359;28;20771;-47
2022/05/07 12:00:23;;;;;;;32.57;27.93;;;17.40;99.90;;;;;;5011866;28;20270;-47
2022/05/07 12:02:51;;;;;;;30.90;26.47;;;17.00;99.90;;;;;;5010265;28;20223;-46
2022/05/07 12:05:19;;;;;;;31.23;27.83;;;16.70;99.90;;;;;;5010896;28;20203;-47
2022/05/07 12:07:49;;;;;;;30.20;27.00;;;16.60;99.90;;;;;;5010940;28;20203;-47
2022/05/07 12:10:17;;;;;;;31.50;28.10;;;16.30;99.90;;;;;;5007910;28;20199;-47
2022/05/07 12:12:45;;;;;;;43.63;30.73;;;16.20;99.90;;;;;;5009995;28;20199;-47
2022/05/07 12:15:13;;;;;;;33.43;28.80;;;16.10;99.90;;;;;;5010742;28;20261;-47
2022/05/07 12:17:55;;;;;;;31.00;27.73;;;16.10;99.90;;;;;;5010730;28;20680;-47
2022/05/07 12:20:23;;;;;;;33.53;29.70;;;16.10;99.90;;;;;;5009348;28;20198;-47
2022/05/07 12:31:17;;;;;;;32.70;29.20;;;16.80;99.90;;;;;;4933509;29;20265;-47
2022/05/07 12:33:44;;;;;;;32.57;29.07;;;16.80;99.90;;;;;;4989313;28;20223;-47
2022/05/07 12:36:11;;;;;;;36.97;31.77;;;16.90;99.90;;;;;;5010924;28;20199;-47
2022/05/07 12:38:40;;;;;;;36.77;32.83;;;16.90;99.90;;;;;;5010784;28;20195;-47
2022/05/07 12:41:07;;;;;;;37.67;33.70;;;17.10;99.90;;;;;;5009698;28;20261;-47
2022/05/07 12:43:36;;;;;;;36.93;32.93;;;17.10;99.90;;;;;;5010712;28;20981;-47
2022/05/07 12:46:03;;;;;;;37.50;33.43;;;17.10;99.90;;;;;;5010493;28;20245;-47
2022/05/07 12:48:30;;;;;;;39.60;35.23;;;16.80;99.90;;;;;;5011567;28;20202;-47
2022/05/07 12:50:57;;;;;;;38.83;34.63;;;16.80;99.90;;;;;;5011145;28;20207;-47
2022/05/07 12:53:24;;;;;;;38.70;33.97;;;16.50;99.90;;;;;;5010837;28;20645;-47
2022/05/07 12:55:52;;;;;;;43.57;37.07;;;16.40;99.90;;;;;;5011635;28;20218;-47
2022/05/07 12:58:19;;;;;;;38.77;34.73;;;16.20;99.90;;;;;;5008014;28;20210;-47
2022/05/07 13:00:46;;;;;;;34.23;30.70;;;16.30;99.90;;;;;;5011376;28;20665;-47
2022/05/07 13:03:13;;;;;;;36.37;32.47;;;16.40;99.90;;;;;;5010345;28;20655;-46
2022/05/07 13:05:40;;;;;;;27.83;25.07;;;16.50;99.90;;;;;;5021540;28;20198;-47